createdAt,value
2019-04-05T00:01:58.881Z,6.40
2019-04-05T00:04:03.281Z,6.50
2019-04-05T00:06:08.094Z,6.50
2019-04-05T00:08:31.715Z,6.50
2019-04-05T00:10:36.342Z,6.50
2019-04-05T00:12:40.819Z,6.50
2019-04-05T00:14:46.412Z,6.50
2019-04-05T00:16:51.221Z,6.50
2019-04-05T00:18:57.244Z,6.50
2019-04-05T00:21:02.589Z,6.50
2019-04-05T00:23:07.688Z,6.50
2019-04-05T00:25:20.409Z,6.50
2019-04-05T00:27:24.982Z,6.50
2019-04-05T00:29:31.954Z,6.40
2019-04-05T00:31:38.641Z,6.40
2019-04-05T00:34:03.722Z,6.50
2019-04-05T00:36:10.116Z,6.50
2019-04-05T00:38:15.233Z,6.50
2019-04-05T00:40:20.624Z,6.50
2019-04-05T00:42:25.054Z,6.50
2019-04-05T00:44:29.559Z,6.50
2019-04-05T00:46:34.027Z,6.50
2019-04-05T00:48:39.303Z,6.50
2019-04-05T00:50:44.733Z,6.50
2019-04-05T00:52:49.695Z,6.50
2019-04-05T00:54:54.287Z,6.50
2019-04-05T00:56:59.052Z,6.50
2019-04-05T00:59:03.602Z,6.50
2019-04-05T01:01:08.128Z,6.50
2019-04-05T01:03:15.556Z,6.50
2019-04-05T01:05:39.037Z,6.50
2019-04-05T01:07:43.962Z,6.50
2019-04-05T01:10:07.857Z,6.50
2019-04-05T01:12:13.107Z,6.50
2019-04-05T01:14:37.853Z,6.50
2019-04-05T01:16:42.470Z,6.50
2019-04-05T01:19:06.009Z,6.60
2019-04-05T01:21:14.110Z,6.60
2019-04-05T01:23:21.204Z,6.60
2019-04-05T01:25:26.119Z,6.60
2019-04-05T01:27:32.476Z,6.60
2019-04-05T01:29:37.748Z,6.50
2019-04-05T01:31:42.495Z,6.60
2019-04-05T01:33:46.905Z,6.60
2019-04-05T01:35:51.724Z,6.60
2019-04-05T01:37:56.403Z,6.60
2019-04-05T01:40:01.844Z,6.60
2019-04-05T01:42:07.152Z,6.60
2019-04-05T01:44:11.996Z,6.60
2019-04-05T01:46:16.416Z,6.60
2019-04-05T01:48:20.889Z,6.60
2019-04-05T01:50:46.896Z,6.60
2019-04-05T01:52:51.526Z,6.70
2019-04-05T01:54:55.973Z,6.60
2019-04-05T01:57:00.385Z,6.60
2019-04-05T02:01:09.024Z,6.60
2019-04-05T02:03:13.500Z,6.60
2019-04-05T02:05:19.205Z,6.60
2019-04-05T02:07:24.282Z,6.60
2019-04-05T02:09:28.984Z,6.60
2019-04-05T02:11:33.426Z,6.60
2019-04-05T02:13:37.993Z,6.60
2019-04-05T02:16:06.665Z,6.60
2019-04-05T02:18:18.928Z,6.60
2019-04-05T02:20:23.823Z,6.60
2019-04-05T02:22:28.615Z,6.60
2019-04-05T02:24:52.205Z,6.60
2019-04-05T02:26:56.671Z,6.60
2019-04-05T02:29:01.165Z,6.60
2019-04-05T02:31:24.965Z,6.60
2019-04-05T02:33:29.437Z,6.60
2019-04-05T02:38:04.892Z,6.60
2019-04-05T02:40:12.925Z,6.60
2019-04-05T02:42:18.292Z,6.60
2019-04-05T02:44:23.417Z,6.60
2019-04-05T02:46:46.928Z,6.60
2019-04-05T02:48:53.088Z,6.60
2019-04-05T02:51:19.203Z,6.50
2019-04-05T02:53:24.095Z,6.50
2019-04-05T02:55:29.986Z,6.40
2019-04-05T02:57:35.191Z,6.40
2019-04-05T02:59:40.363Z,6.40
2019-04-05T03:01:45.504Z,6.40
2019-04-05T03:03:50.080Z,6.30
2019-04-05T03:05:54.891Z,6.30
2019-04-05T03:07:59.851Z,6.40
2019-04-05T03:10:42.326Z,6.40
2019-04-05T03:12:47.020Z,6.40
2019-04-05T03:15:11.625Z,6.40
2019-04-05T03:17:16.403Z,6.40
2019-04-05T03:19:42.684Z,6.40
2019-04-05T03:21:51.197Z,6.40
2019-04-05T03:24:16.100Z,6.30
2019-04-05T03:26:23.765Z,6.30
2019-04-05T03:28:29.603Z,6.30
2019-04-05T03:30:35.486Z,6.30
2019-04-05T03:32:39.970Z,6.40
2019-04-05T03:34:45.057Z,6.40
2019-04-05T03:36:51.652Z,6.40
2019-04-05T03:38:55.944Z,6.40
2019-04-05T03:41:00.660Z,6.40
2019-04-05T03:43:05.275Z,6.40
2019-04-05T03:45:09.789Z,6.40
2019-04-05T03:47:14.189Z,6.40
2019-04-05T03:49:18.599Z,6.50
2019-04-05T03:51:24.806Z,6.40
2019-04-05T03:53:29.909Z,6.40
2019-04-05T03:55:34.408Z,6.40
2019-04-05T04:00:02.621Z,6.40
2019-04-05T04:02:07.090Z,6.40
2019-04-05T04:04:11.592Z,6.40
2019-04-05T04:06:16.094Z,6.40
2019-04-05T04:08:23.435Z,6.40
2019-04-05T04:10:29.329Z,6.50
2019-04-05T04:12:33.785Z,6.40
2019-04-05T04:14:39.521Z,6.40
2019-04-05T04:16:44.109Z,6.40
2019-04-05T04:18:50.162Z,6.40
2019-04-05T04:23:31.017Z,6.30
2019-04-05T04:25:36.435Z,6.20
2019-04-05T04:28:00.000Z,6.20
2019-04-05T04:30:04.702Z,6.20
2019-04-05T04:32:09.430Z,6.10
2019-04-05T04:34:14.166Z,6.10
2019-04-05T04:36:18.826Z,6.10
2019-04-05T04:38:24.062Z,6.10
2019-04-05T04:40:29.095Z,6.10
2019-04-05T04:42:33.844Z,6.10
2019-04-05T04:44:38.407Z,6.10
2019-04-05T04:47:01.967Z,6.10
2019-04-05T04:49:06.672Z,6.20
2019-04-05T04:51:13.200Z,6.20
2019-04-05T04:53:19.136Z,6.20
2019-04-05T04:55:23.815Z,6.20
2019-04-05T04:57:28.992Z,6.20
2019-04-05T04:59:52.549Z,6.20
2019-04-05T05:01:57.344Z,6.20
2019-04-05T05:04:22.243Z,6.20
2019-04-05T05:06:27.048Z,6.20
2019-04-05T05:08:33.768Z,6.20
2019-04-05T05:10:38.887Z,6.20
2019-04-05T05:12:43.851Z,6.20
2019-04-05T05:14:48.960Z,6.20
2019-04-05T05:16:53.880Z,6.20
2019-04-05T05:18:59.212Z,6.20
2019-04-05T05:21:03.941Z,6.10
2019-04-05T05:23:08.670Z,6.10
2019-04-05T05:25:32.208Z,6.10
2019-04-05T05:27:37.285Z,6.00
2019-04-05T05:29:43.023Z,6.00
2019-04-05T05:32:09.635Z,6.00
2019-04-05T05:36:26.780Z,6.00
2019-04-05T05:38:31.598Z,6.00
2019-04-05T05:40:55.129Z,6.00
2019-04-05T05:42:59.961Z,6.10
2019-04-05T05:45:05.177Z,6.00
2019-04-05T05:47:09.742Z,6.10
2019-04-05T05:49:14.503Z,6.10
2019-04-05T05:51:20.128Z,6.10
2019-04-05T05:53:24.960Z,6.10
2019-04-05T05:55:44.211Z,6.10
2019-04-05T05:57:49.657Z,6.10
2019-04-05T05:59:54.052Z,6.10
2019-04-05T06:01:59.046Z,6.10
2019-04-05T06:04:04.628Z,6.10
2019-04-05T06:06:09.477Z,6.10
2019-04-05T06:08:33.142Z,6.10
2019-04-05T06:10:38.019Z,6.10
2019-04-05T06:12:43.674Z,6.10
2019-04-05T06:14:48.234Z,6.10
2019-04-05T06:16:53.200Z,6.20
2019-04-05T06:18:58.208Z,6.20
2019-04-05T06:21:03.507Z,6.20
2019-04-05T06:23:08.223Z,6.30
2019-04-05T06:25:32.022Z,6.40
2019-04-05T06:27:37.031Z,6.40
2019-04-05T06:29:41.866Z,6.50
2019-04-05T06:31:46.418Z,6.60
2019-04-05T06:33:51.153Z,6.60
2019-04-05T06:35:56.598Z,6.70
2019-04-05T06:38:04.191Z,6.70
2019-04-05T06:40:08.881Z,6.80
2019-04-05T06:42:13.485Z,6.80
2019-04-05T06:44:18.206Z,6.80
2019-04-05T06:46:23.643Z,6.80
2019-04-05T06:48:29.570Z,6.90
2019-04-05T06:50:34.665Z,6.90
2019-04-05T06:52:39.512Z,6.90
2019-04-05T06:54:44.579Z,6.90
2019-04-05T06:56:49.243Z,6.90
2019-04-05T06:58:55.085Z,7.00
2019-04-05T07:00:59.936Z,7.00
2019-04-05T07:03:04.573Z,7.00
2019-04-05T07:05:09.196Z,7.10
2019-04-05T07:07:13.982Z,7.00
2019-04-05T07:09:18.497Z,7.00
2019-04-05T07:11:23.122Z,7.00
2019-04-05T07:13:28.025Z,7.10
2019-04-05T07:15:32.465Z,7.10
2019-04-05T07:17:37.532Z,7.20
2019-04-05T07:19:42.029Z,7.30
2019-04-05T07:21:47.039Z,7.30
2019-04-05T07:23:51.553Z,7.20
2019-04-05T07:25:56.340Z,7.20
2019-04-05T07:32:27.879Z,7.40
2019-04-05T07:34:32.805Z,7.30
2019-04-05T07:36:56.860Z,7.30
2019-04-05T07:39:20.397Z,7.40
2019-04-05T07:41:25.009Z,7.40
2019-04-05T07:43:49.238Z,7.40
2019-04-05T07:45:53.666Z,7.40
2019-04-05T07:47:58.401Z,7.40
2019-04-05T07:50:02.892Z,7.40
2019-04-05T07:52:26.950Z,7.40
2019-04-05T07:54:31.434Z,7.40
2019-04-05T07:56:36.163Z,7.50
2019-04-05T07:58:41.237Z,7.60
2019-04-05T08:00:57.559Z,7.60
2019-04-05T08:03:04.245Z,7.70
2019-04-05T08:05:08.934Z,7.80
2019-04-05T08:07:14.957Z,7.80
2019-04-05T08:09:20.753Z,7.70
2019-04-05T08:11:26.764Z,7.70
2019-04-05T08:13:32.683Z,7.80
2019-04-05T08:15:56.466Z,7.80
2019-04-05T08:18:00.978Z,7.80
2019-04-05T08:20:05.673Z,8.00
2019-04-05T08:22:10.468Z,8.00
2019-04-05T08:24:15.267Z,8.10
2019-04-05T08:26:20.059Z,8.20
2019-04-05T08:28:24.470Z,8.40
2019-04-05T08:30:28.899Z,8.60
2019-04-05T08:32:33.333Z,8.60
2019-04-05T08:34:56.879Z,8.60
2019-04-05T08:37:20.278Z,8.80
2019-04-05T08:39:24.731Z,8.70
2019-04-05T08:41:29.456Z,8.70
2019-04-05T08:43:33.919Z,8.60
2019-04-05T08:45:57.600Z,8.50
2019-04-05T08:48:02.466Z,8.50
2019-04-05T08:50:08.366Z,8.60
2019-04-05T08:52:32.124Z,8.70
2019-04-05T08:54:37.269Z,8.80
2019-04-05T08:56:41.754Z,8.90
2019-04-05T08:58:46.623Z,9.10
2019-04-05T09:00:52.666Z,9.40
2019-04-05T09:02:57.468Z,9.70
2019-04-05T09:05:02.538Z,9.90
2019-04-05T09:07:07.362Z,10.10
2019-04-05T09:09:11.951Z,10.00
2019-04-05T09:11:16.519Z,10.10
2019-04-05T09:13:21.049Z,10.30
2019-04-05T09:15:27.017Z,10.20
2019-04-05T09:17:31.817Z,10.30
2019-04-05T09:19:38.765Z,10.20
2019-04-05T09:21:43.183Z,10.20
2019-04-05T09:23:48.341Z,9.90
2019-04-05T09:25:52.796Z,9.90
2019-04-05T09:27:57.541Z,9.90
2019-04-05T09:30:02.012Z,9.70
2019-04-05T09:32:06.524Z,9.90
2019-04-05T09:34:11.190Z,9.80
2019-04-05T09:36:16.158Z,9.70
2019-04-05T09:38:20.699Z,9.70
2019-04-05T09:40:44.621Z,9.80
2019-04-05T09:42:49.381Z,10.00
2019-04-05T09:44:53.957Z,10.20
2019-04-05T09:46:59.688Z,10.20
2019-04-05T09:49:35.803Z,10.00
2019-04-05T09:51:29.465Z,9.90
2019-04-05T09:53:34.541Z,9.80
2019-04-05T09:55:39.409Z,9.70
2019-04-05T09:57:43.912Z,9.80
2019-04-05T09:59:48.427Z,9.90
2019-04-05T10:01:53.909Z,10.00
2019-04-05T10:03:58.694Z,9.90
2019-04-05T10:06:03.094Z,9.90
2019-04-05T10:08:07.547Z,10.10
2019-04-05T10:10:12.246Z,10.20
2019-04-05T10:12:17.212Z,10.20
2019-04-05T10:14:21.611Z,10.30
2019-04-05T10:16:26.058Z,10.30
2019-04-05T10:18:30.805Z,10.10
2019-04-05T10:20:38.817Z,10.20
2019-04-05T10:22:42.709Z,10.20
2019-04-05T10:24:47.976Z,10.20
2019-04-05T10:26:54.242Z,10.60
2019-04-05T10:29:17.789Z,10.80
2019-04-05T10:31:22.428Z,10.50
2019-04-05T10:33:26.941Z,10.30
2019-04-05T10:35:31.684Z,10.30
2019-04-05T10:37:36.822Z,10.30
2019-04-05T10:39:41.747Z,10.40
2019-04-05T10:41:47.548Z,10.60
2019-04-05T10:43:52.179Z,10.70
2019-04-05T10:45:56.933Z,10.60
2019-04-05T10:48:01.825Z,10.60
2019-04-05T10:52:34.422Z,10.70
2019-04-05T10:54:38.914Z,10.80
2019-04-05T10:56:43.747Z,10.90
2019-04-05T10:58:48.121Z,11.20
2019-04-05T11:00:53.957Z,10.60
2019-04-05T11:03:10.107Z,10.30
2019-04-05T11:05:25.756Z,10.30
2019-04-05T11:07:41.916Z,10.20
2019-04-05T11:09:58.435Z,10.30
2019-04-05T11:12:02.882Z,10.80
2019-04-05T11:14:13.635Z,11.00
2019-04-05T11:16:13.802Z,10.80
2019-04-05T11:18:18.555Z,10.70
2019-04-05T11:20:23.385Z,10.90
2019-04-05T11:22:46.967Z,11.10
2019-04-05T11:24:52.746Z,11.10
2019-04-05T11:26:57.262Z,11.30
2019-04-05T11:29:20.717Z,11.40
2019-04-05T11:31:25.723Z,11.70
2019-04-05T11:33:30.537Z,12.00
2019-04-05T11:35:35.139Z,12.10
2019-04-05T11:37:41.021Z,12.10
2019-04-05T11:39:46.372Z,12.00
2019-04-05T11:44:02.149Z,12.10
2019-04-05T11:46:06.787Z,12.10
2019-04-05T11:48:11.199Z,12.10
2019-04-05T11:50:15.900Z,11.80
2019-04-05T11:52:20.495Z,11.30
2019-04-05T11:54:25.285Z,11.10
2019-04-05T11:56:43.754Z,10.90
2019-04-05T11:58:50.024Z,11.20
2019-04-05T12:01:33.763Z,11.30
2019-04-05T12:03:38.957Z,11.20
2019-04-05T12:05:44.053Z,11.40
2019-04-05T12:07:49.542Z,11.60
2019-04-05T12:09:54.070Z,11.60
2019-04-05T12:11:58.634Z,11.50
2019-04-05T12:14:03.357Z,11.50
2019-04-05T12:16:10.741Z,11.30
2019-04-05T12:18:19.169Z,11.20
2019-04-05T12:20:22.309Z,11.20
2019-04-05T12:22:26.720Z,11.40
2019-04-05T12:24:32.662Z,11.40
2019-04-05T12:26:38.221Z,11.10
2019-04-05T12:28:43.128Z,11.10
2019-04-05T12:30:48.961Z,11.20
2019-04-05T12:32:54.380Z,11.20
2019-04-05T12:34:59.205Z,11.20
2019-04-05T12:37:03.723Z,11.20
2019-04-05T12:39:08.767Z,11.00
2019-04-05T12:41:13.374Z,10.80
2019-04-05T12:43:18.162Z,10.70
2019-04-05T12:45:22.691Z,10.70
2019-04-05T12:47:27.071Z,10.80
2019-04-05T12:49:31.805Z,10.90
2019-04-05T12:51:36.384Z,11.20
2019-04-05T12:53:40.749Z,11.30
2019-04-05T12:55:45.497Z,11.40
2019-04-05T12:57:49.898Z,11.50
2019-04-05T12:59:56.432Z,11.60
2019-04-05T13:02:01.064Z,11.40
2019-04-05T13:04:05.898Z,11.20
2019-04-05T13:08:23.956Z,10.90
2019-04-05T13:10:30.269Z,10.70
2019-04-05T13:12:35.094Z,10.70
2019-04-05T13:14:39.586Z,10.70
2019-04-05T13:16:44.598Z,10.70
2019-04-05T13:18:49.361Z,10.80
2019-04-05T13:20:53.844Z,11.00
2019-04-05T13:23:17.636Z,10.90
2019-04-05T13:25:23.104Z,10.70
2019-04-05T13:27:27.740Z,10.70
2019-04-05T13:29:38.071Z,10.60
2019-04-05T13:31:43.048Z,10.40
2019-04-05T13:33:48.946Z,10.20
2019-04-05T13:36:12.451Z,10.30
2019-04-05T13:38:17.924Z,10.20
2019-04-05T13:40:25.355Z,10.10
2019-04-05T13:42:31.916Z,10.20
2019-04-05T13:44:36.631Z,10.30
2019-04-05T13:46:42.874Z,10.20
2019-04-05T13:48:47.865Z,10.20
2019-04-05T13:53:30.519Z,10.30
2019-04-05T13:55:55.461Z,10.40
2019-04-05T13:58:12.076Z,10.60
2019-04-05T14:00:18.522Z,10.80
2019-04-05T14:02:23.070Z,10.80
2019-04-05T14:04:29.676Z,10.70
2019-04-05T14:06:36.618Z,10.70
2019-04-05T14:08:42.968Z,10.60
2019-04-05T14:10:47.706Z,10.50
2019-04-05T14:12:52.594Z,10.40
2019-04-05T14:14:57.963Z,10.40
2019-04-05T14:17:02.574Z,10.40
2019-04-05T14:19:07.669Z,10.40
2019-04-05T14:21:40.234Z,10.40
2019-04-05T14:23:38.063Z,10.40
2019-04-05T14:25:42.783Z,10.30
2019-04-05T14:27:47.384Z,10.30
2019-04-05T14:29:53.404Z,10.10
2019-04-05T14:32:02.535Z,10.10
2019-04-05T14:34:23.687Z,10.10
2019-04-05T14:36:29.614Z,10.00
2019-04-05T14:38:34.443Z,10.00
2019-04-05T14:40:39.232Z,10.00
2019-04-05T14:42:44.889Z,10.00
2019-04-05T14:44:52.663Z,10.10
2019-04-05T14:46:58.134Z,10.20
2019-04-05T14:49:03.255Z,10.20
2019-04-05T14:51:08.059Z,10.30
2019-04-05T14:53:12.598Z,10.20
2019-04-05T14:55:17.396Z,10.10
2019-04-05T14:59:32.865Z,10.00
2019-04-05T15:01:37.544Z,9.90
2019-04-05T15:03:42.293Z,10.00
2019-04-05T15:05:46.927Z,9.90
2019-04-05T15:07:54.975Z,9.90
2019-04-05T15:09:59.532Z,10.00
2019-04-05T15:12:04.356Z,10.00
2019-04-05T15:14:09.587Z,10.00
2019-04-05T15:16:14.570Z,10.00
2019-04-05T15:18:19.704Z,9.80
2019-04-05T15:20:24.791Z,9.70
2019-04-05T15:22:29.727Z,9.60
2019-04-05T15:24:34.899Z,9.50
2019-04-05T15:26:39.521Z,9.40
2019-04-05T15:28:44.560Z,9.40
2019-04-05T15:30:49.765Z,9.40
2019-04-05T15:32:57.601Z,9.40
2019-04-05T15:35:00.584Z,9.30
2019-04-05T15:37:05.012Z,9.30
2019-04-05T15:39:10.023Z,9.20
2019-04-05T15:41:14.553Z,9.30
2019-04-05T15:43:18.966Z,9.30
2019-04-05T15:45:23.841Z,9.40
2019-04-05T15:47:28.617Z,9.40
2019-04-05T15:49:33.131Z,9.40
2019-04-05T15:51:38.416Z,9.50
2019-04-05T15:54:02.281Z,9.60
2019-04-05T15:56:06.652Z,9.60
2019-04-05T15:58:11.066Z,9.60
2019-04-05T16:00:37.279Z,9.60
2019-04-05T16:02:43.098Z,9.50
2019-04-05T16:04:47.895Z,9.50
2019-04-05T16:06:52.705Z,9.50
2019-04-05T16:08:57.853Z,9.40
2019-04-05T16:11:04.365Z,9.50
2019-04-05T16:15:46.465Z,9.40
2019-04-05T16:17:52.038Z,9.30
2019-04-05T16:19:56.824Z,9.20
2019-04-05T16:22:01.431Z,9.10
2019-04-05T16:24:05.906Z,9.10
2019-04-05T16:26:10.912Z,9.10
2019-04-05T16:28:17.361Z,9.10
2019-04-05T16:30:21.961Z,9.00
2019-04-05T16:32:29.972Z,9.10
2019-04-05T16:34:34.782Z,9.20
2019-04-05T16:36:40.083Z,9.00
2019-04-05T16:38:44.611Z,9.10
2019-04-05T16:40:51.430Z,9.10
2019-04-05T16:43:02.676Z,9.10
2019-04-05T16:45:04.395Z,9.00
2019-04-05T16:47:29.242Z,8.90
2019-04-05T16:49:34.709Z,8.90
2019-04-05T16:51:39.656Z,8.90
2019-04-05T16:54:03.219Z,8.90
2019-04-05T16:56:28.075Z,8.90
2019-04-05T16:58:33.676Z,9.00
2019-04-05T17:00:57.596Z,9.00
2019-04-05T17:03:21.236Z,8.90
2019-04-05T17:05:37.179Z,9.00
2019-04-05T17:10:14.471Z,8.90
2019-04-05T17:12:31.432Z,8.90
2019-04-05T17:14:36.252Z,8.90
2019-04-05T17:17:00.142Z,8.90
2019-04-05T17:19:05.111Z,8.90
2019-04-05T17:21:10.215Z,8.90
2019-04-05T17:23:15.577Z,8.90
2019-04-05T17:25:22.219Z,8.90
2019-04-05T17:27:27.226Z,8.80
2019-04-05T17:29:32.076Z,8.80
2019-04-05T17:31:38.054Z,8.80
2019-04-05T17:33:44.195Z,8.80
2019-04-05T17:35:49.493Z,8.80
2019-04-05T17:37:56.339Z,8.90
2019-04-05T17:40:01.143Z,8.90
2019-04-05T17:42:05.762Z,8.80
2019-04-05T17:44:11.206Z,8.80
2019-04-05T17:46:16.863Z,8.90
2019-04-05T17:48:40.475Z,9.00
2019-04-05T17:50:45.003Z,8.80
2019-04-05T17:52:49.842Z,8.80
2019-04-05T17:54:55.611Z,8.70
2019-04-05T17:57:00.915Z,8.80
2019-04-05T17:59:24.842Z,8.70
2019-04-05T18:01:29.413Z,8.70
2019-04-05T18:03:33.861Z,8.70
2019-04-05T18:05:57.658Z,8.80
2019-04-05T18:08:21.655Z,8.70
2019-04-05T18:10:26.071Z,8.70
2019-04-05T18:12:31.517Z,8.60
2019-04-05T18:14:36.300Z,8.60
2019-04-05T18:16:40.828Z,8.60
2019-04-05T18:18:45.445Z,8.60
2019-04-05T18:20:50.667Z,8.60
2019-04-05T18:22:55.073Z,8.60
2019-04-05T18:24:59.470Z,8.60
2019-04-05T18:27:04.087Z,8.50
2019-04-05T18:29:08.617Z,8.50
2019-04-05T18:31:13.520Z,8.50
2019-04-05T18:33:18.049Z,8.50
2019-04-05T18:35:22.717Z,8.50
2019-04-05T18:37:27.527Z,8.50
2019-04-05T18:39:32.785Z,8.50
2019-04-05T18:41:37.479Z,8.40
2019-04-05T18:43:42.357Z,8.50
2019-04-05T18:45:47.336Z,8.60
2019-04-05T18:47:52.309Z,8.60
2019-04-05T18:50:02.887Z,8.60
2019-04-05T18:52:22.377Z,8.50
2019-04-05T18:54:26.919Z,8.40
2019-04-05T18:56:31.506Z,8.40
2019-04-05T18:58:37.768Z,8.40
2019-04-05T19:00:42.536Z,8.30
2019-04-05T19:02:48.069Z,8.30
2019-04-05T19:04:53.856Z,8.30
2019-04-05T19:07:00.722Z,8.30
2019-04-05T19:09:26.067Z,8.40
2019-04-05T19:11:31.677Z,8.40
2019-04-05T19:13:38.473Z,8.40
2019-04-05T19:15:44.984Z,8.40
2019-04-05T19:17:50.897Z,8.40
2019-04-05T19:19:55.776Z,8.40
2019-04-05T19:22:01.371Z,8.40
2019-04-05T19:24:06.174Z,8.40
2019-04-05T19:26:11.982Z,8.40
2019-04-05T19:28:18.875Z,8.40
2019-04-05T19:49:31.835Z,8.30
2019-04-05T19:51:41.145Z,8.30
2019-04-05T19:54:33.819Z,8.40
2019-04-05T19:56:22.851Z,8.40
2019-04-05T19:58:27.832Z,8.30
2019-04-05T20:00:32.671Z,8.30
2019-04-05T20:02:38.165Z,8.30
2019-04-05T20:04:43.199Z,8.20
2019-04-05T20:06:57.908Z,8.20
2019-04-05T20:08:56.189Z,8.20
2019-04-05T20:11:01.595Z,8.20
2019-04-05T20:13:06.229Z,8.20
2019-04-05T20:15:24.739Z,8.30
2019-04-05T20:20:32.817Z,8.30
2019-04-05T20:22:38.482Z,8.30
2019-04-05T20:24:45.199Z,8.30
2019-04-05T20:26:50.542Z,8.20
2019-04-05T20:28:57.724Z,8.20
2019-04-05T20:31:04.083Z,8.30
2019-04-05T20:33:09.032Z,8.30
2019-04-05T20:35:14.827Z,8.20
2019-04-05T20:37:22.146Z,8.20
2019-04-05T20:39:48.723Z,8.20
2019-04-05T20:41:53.402Z,8.20
2019-04-05T20:44:02.200Z,8.20
2019-04-05T20:46:09.657Z,8.20
2019-04-05T20:50:45.726Z,8.20
2019-04-05T20:55:44.869Z,8.30
2019-04-05T20:57:53.510Z,8.20
2019-04-05T21:00:11.186Z,8.20
2019-04-05T21:02:16.132Z,8.20
2019-04-05T21:04:34.031Z,8.20
2019-04-05T21:06:39.257Z,8.20
2019-04-05T21:08:44.143Z,8.20
2019-04-05T21:10:52.273Z,8.20
2019-04-05T21:13:11.752Z,8.20
2019-04-05T21:15:30.422Z,8.20
2019-04-05T21:17:39.335Z,8.20
2019-04-05T21:19:48.325Z,8.20
2019-04-05T21:21:54.667Z,8.20
2019-04-05T21:23:59.256Z,8.20
2019-04-05T21:26:04.782Z,8.20
2019-04-05T21:28:10.211Z,8.20
2019-04-05T21:30:21.550Z,8.20
2019-04-05T21:32:29.619Z,8.20
2019-04-05T21:34:37.677Z,8.20
2019-04-05T21:36:43.291Z,8.20
2019-04-05T21:38:47.783Z,8.10
2019-04-05T21:40:52.392Z,8.30
2019-04-05T21:42:58.237Z,8.30
2019-04-05T21:45:03.033Z,8.20
2019-04-05T21:47:11.026Z,8.20
2019-04-05T21:49:18.318Z,8.10
2019-04-05T21:51:24.732Z,8.10
2019-04-05T21:53:48.728Z,8.10
2019-04-05T21:55:55.502Z,8.10
2019-04-05T21:58:00.442Z,8.20
2019-04-05T22:00:09.423Z,8.20
2019-04-05T22:02:14.700Z,8.20
2019-04-05T22:04:22.115Z,8.20
2019-04-05T22:06:27.373Z,8.20
2019-04-05T22:08:32.348Z,8.20
2019-04-05T22:10:37.365Z,8.20
2019-04-05T22:12:41.971Z,8.20
2019-04-05T22:14:47.556Z,8.20
2019-04-05T22:16:52.127Z,8.20
2019-04-05T22:19:02.245Z,8.20
2019-04-05T22:21:08.651Z,8.20
2019-04-05T22:23:13.188Z,8.20
2019-04-05T22:25:18.168Z,8.30
2019-04-05T22:27:22.669Z,8.30
2019-04-05T22:29:28.118Z,8.30
2019-04-05T22:31:32.777Z,8.30
2019-04-05T22:33:37.895Z,8.30
2019-04-05T22:35:43.002Z,8.30
2019-04-05T22:37:47.872Z,8.30
2019-04-05T22:39:52.376Z,8.20
2019-04-05T22:41:57.373Z,8.30
2019-04-05T22:44:02.512Z,8.20
2019-04-05T22:46:08.062Z,8.30
2019-04-05T22:48:13.326Z,8.30
2019-04-05T22:50:17.967Z,8.30
2019-04-05T22:52:22.439Z,8.30
2019-04-05T22:54:26.894Z,8.30
2019-04-05T22:56:32.087Z,8.30
2019-04-05T22:58:37.056Z,8.30
2019-04-05T23:00:41.482Z,8.30
2019-04-05T23:02:47.452Z,8.40
2019-04-05T23:04:51.871Z,8.40
2019-04-05T23:06:56.348Z,8.40
2019-04-05T23:09:00.876Z,8.40
2019-04-05T23:11:24.661Z,8.40
2019-04-05T23:13:29.449Z,8.30
2019-04-05T23:15:33.902Z,8.30
2019-04-05T23:17:57.371Z,8.30
2019-04-05T23:20:02.203Z,8.30
2019-04-05T23:22:18.469Z,8.30
2019-04-05T23:24:23.881Z,8.30
2019-04-05T23:26:28.946Z,8.30
2019-04-05T23:28:33.464Z,8.30
2019-04-05T23:30:37.865Z,8.30
2019-04-05T23:32:42.248Z,8.40
2019-04-05T23:34:46.932Z,8.40
2019-04-05T23:36:51.966Z,8.40
2019-04-05T23:38:56.801Z,8.30
2019-04-05T23:41:20.565Z,8.30
2019-04-05T23:43:25.330Z,8.30
2019-04-05T23:45:29.778Z,8.30
2019-04-05T23:47:37.350Z,8.30
2019-04-05T23:49:42.254Z,8.30
2019-04-05T23:51:47.698Z,8.30
2019-04-05T23:53:52.207Z,8.30
2019-04-05T23:55:56.959Z,8.30
2019-04-05T23:58:01.772Z,8.30
